createdAt,value
2024-01-03T00:02:27.961Z,9.92
2024-01-03T00:05:07.490Z,10.14
2024-01-03T00:07:47.155Z,10.09
2024-01-03T00:10:48.092Z,10.22
2024-01-03T00:14:12.147Z,10.03
2024-01-03T00:16:51.512Z,9.91
2024-01-03T00:19:36.244Z,9.77
2024-01-03T00:22:23.026Z,9.76
2024-01-03T00:25:06.339Z,9.77
2024-01-03T00:27:47.398Z,9.77
2024-01-03T00:30:26.755Z,9.97
2024-01-03T00:33:06.325Z,10.13
2024-01-03T00:35:53.847Z,10.11
2024-01-03T00:38:33.439Z,10.28
2024-01-03T00:41:13.618Z,10.30
2024-01-03T00:43:53.326Z,10.10
2024-01-03T00:46:32.825Z,11.48
2024-01-03T00:49:15.781Z,10.90
2024-01-03T00:52:02.623Z,10.86
2024-01-03T00:54:44.253Z,10.77
2024-01-03T00:57:25.499Z,10.48
2024-01-03T01:00:05.123Z,10.97
2024-01-03T01:02:44.596Z,9.89
2024-01-03T01:05:24.267Z,10.06
2024-01-03T01:08:09.691Z,10.42
2024-01-03T01:10:49.270Z,10.38
2024-01-03T01:13:28.612Z,10.24
2024-01-03T01:16:07.930Z,10.50
2024-01-03T01:18:47.408Z,10.60
2024-01-03T01:21:26.830Z,10.34
2024-01-03T01:24:11.804Z,10.23
2024-01-03T01:26:51.114Z,10.16
2024-01-03T01:29:30.470Z,11.34
2024-01-03T01:32:11.100Z,11.09
2024-01-03T01:34:52.406Z,10.55
2024-01-03T01:37:31.708Z,10.40
2024-01-03T01:40:17.691Z,10.34
2024-01-03T01:42:56.987Z,10.85
2024-01-03T01:45:36.291Z,10.57
2024-01-03T01:48:16.570Z,10.42
2024-01-03T01:50:56.244Z,10.59
2024-01-03T01:53:36.540Z,9.74
2024-01-03T01:56:22.550Z,9.74
2024-01-03T01:59:02.021Z,9.76
2024-01-03T02:01:41.968Z,9.52
2024-01-03T02:04:22.773Z,9.21
2024-01-03T02:07:02.569Z,9.30
2024-01-03T02:09:42.022Z,9.38
2024-01-03T02:12:34.391Z,10.09
2024-01-03T02:15:14.632Z,9.93
2024-01-03T02:17:55.009Z,10.51
2024-01-03T02:20:40.142Z,10.30
2024-01-03T02:23:24.677Z,10.15
2024-01-03T02:26:10.509Z,10.18
2024-01-03T02:28:57.300Z,9.97
2024-01-03T02:31:36.650Z,10.08
2024-01-03T02:34:15.999Z,10.76
2024-01-03T02:36:56.302Z,11.30
2024-01-03T02:39:40.972Z,10.67
2024-01-03T02:42:20.371Z,11.13
2024-01-03T02:44:59.747Z,10.87
2024-01-03T02:47:39.157Z,10.79
2024-01-03T02:50:18.660Z,10.69
2024-01-03T02:52:57.969Z,10.56
2024-01-03T02:55:42.333Z,10.19
2024-01-03T02:58:21.667Z,10.34
2024-01-03T03:01:01.032Z,10.16
2024-01-03T03:03:40.494Z,10.09
2024-01-03T03:06:19.986Z,9.95
2024-01-03T03:09:09.350Z,9.93
2024-01-03T03:12:00.608Z,9.92
2024-01-03T03:14:40.044Z,9.89
2024-01-03T03:17:19.501Z,10.12
2024-01-03T03:19:58.814Z,10.56
2024-01-03T03:22:38.112Z,10.33
2024-01-03T03:25:17.414Z,10.36
2024-01-03T03:28:01.812Z,10.16
2024-01-03T03:30:41.133Z,10.02
2024-01-03T03:33:20.659Z,10.18
2024-01-03T03:36:00.049Z,10.97
2024-01-03T03:38:39.386Z,9.82
2024-01-03T03:41:22.226Z,9.29
2024-01-03T03:44:07.281Z,9.36
2024-01-03T03:46:46.576Z,9.42
2024-01-03T03:49:25.952Z,9.66
2024-01-03T03:52:05.246Z,9.38
2024-01-03T03:54:44.512Z,9.60
2024-01-03T03:57:23.865Z,9.33
2024-01-03T04:00:11.491Z,9.25
2024-01-03T04:02:51.049Z,9.24
2024-01-03T04:05:30.538Z,9.29
2024-01-03T04:08:10.131Z,9.47
2024-01-03T04:10:50.072Z,9.47
2024-01-03T04:13:29.377Z,9.66
2024-01-03T04:16:14.583Z,9.68
2024-01-03T04:18:54.341Z,9.61
2024-01-03T04:21:33.845Z,9.53
2024-01-03T04:24:13.465Z,9.57
2024-01-03T04:26:52.845Z,9.44
2024-01-03T04:29:32.291Z,9.38
2024-01-03T04:32:17.170Z,9.39
2024-01-03T04:34:56.498Z,9.41
2024-01-03T04:37:36.520Z,9.38
2024-01-03T04:40:17.335Z,9.39
2024-01-03T04:42:56.691Z,9.45
2024-01-03T04:45:35.983Z,9.48
2024-01-03T04:48:20.658Z,9.58
2024-01-03T04:51:00.503Z,9.54
2024-01-03T04:53:39.988Z,9.44
2024-01-03T04:56:19.519Z,9.36
2024-01-03T04:58:58.986Z,9.41
2024-01-03T05:01:38.406Z,9.42
2024-01-03T05:04:22.798Z,9.47
2024-01-03T05:07:02.351Z,9.40
2024-01-03T05:09:41.820Z,9.62
2024-01-03T05:12:21.219Z,9.72
2024-01-03T05:15:00.846Z,9.62
2024-01-03T05:17:40.887Z,10.38
2024-01-03T05:20:25.648Z,10.29
2024-01-03T05:23:04.941Z,9.95
2024-01-03T05:25:44.387Z,9.76
2024-01-03T05:28:23.736Z,9.66
2024-01-03T05:31:03.324Z,9.78
2024-01-03T05:33:42.899Z,9.81
2024-01-03T05:36:27.266Z,9.67
2024-01-03T05:39:06.614Z,9.59
2024-01-03T05:41:45.928Z,9.48
2024-01-03T05:44:25.334Z,9.45
2024-01-03T05:47:05.368Z,9.44
2024-01-03T05:49:44.875Z,9.57
2024-01-03T05:52:29.482Z,9.57
2024-01-03T05:55:08.990Z,9.46
2024-01-03T05:57:48.271Z,9.46
2024-01-03T06:00:27.828Z,9.42
2024-01-03T06:03:07.376Z,9.48
2024-01-03T06:05:46.779Z,9.47
2024-01-03T06:08:31.188Z,9.48
2024-01-03T06:11:10.605Z,9.58
2024-01-03T06:13:52.123Z,9.44
2024-01-03T06:16:31.460Z,9.44
2024-01-03T06:19:11.031Z,9.54
2024-01-03T06:21:50.472Z,9.48
2024-01-03T06:24:34.898Z,9.56
2024-01-03T06:27:14.215Z,9.62
2024-01-03T06:29:53.728Z,9.53
2024-01-03T06:32:33.161Z,9.58
2024-01-03T06:35:15.702Z,9.72
2024-01-03T06:37:55.236Z,9.60
2024-01-03T06:40:39.831Z,9.61
2024-01-03T06:43:19.138Z,9.62
2024-01-03T06:45:58.423Z,9.63
2024-01-03T06:48:37.865Z,9.64
2024-01-03T06:51:17.353Z,9.72
2024-01-03T06:53:56.930Z,9.70
2024-01-03T06:56:41.339Z,9.75
2024-01-03T06:59:20.648Z,9.87
2024-01-03T07:02:00.134Z,9.84
2024-01-03T07:04:39.444Z,9.80
2024-01-03T07:07:19.499Z,9.78
2024-01-03T07:09:59.159Z,9.87
2024-01-03T07:12:43.690Z,9.92
2024-01-03T07:15:23.042Z,10.04
2024-01-03T07:18:03.715Z,10.13
2024-01-03T07:20:43.051Z,10.05
2024-01-03T07:23:22.416Z,10.06
2024-01-03T07:26:01.764Z,11.34
2024-01-03T07:28:46.115Z,10.99
2024-01-03T07:31:25.399Z,10.76
2024-01-03T07:34:04.867Z,10.65
2024-01-03T07:36:44.231Z,10.54
2024-01-03T07:39:23.671Z,10.45
2024-01-03T07:42:03.066Z,10.53
2024-01-03T07:44:48.723Z,10.45
2024-01-03T07:47:28.169Z,10.34
2024-01-03T07:50:07.880Z,10.39
2024-01-03T07:52:47.249Z,10.32
2024-01-03T07:55:26.524Z,10.25
2024-01-03T07:58:06.435Z,10.19
2024-01-03T08:00:51.001Z,10.34
2024-01-03T08:03:30.398Z,10.35
2024-01-03T08:06:09.908Z,10.34
2024-01-03T08:08:49.273Z,10.37
2024-01-03T08:11:28.677Z,10.33
2024-01-03T08:14:08.225Z,10.25
2024-01-03T08:16:52.556Z,10.20
2024-01-03T08:19:32.206Z,10.21
2024-01-03T08:22:12.045Z,10.39
2024-01-03T08:24:51.570Z,10.67
2024-01-03T08:27:30.889Z,11.93
2024-01-03T08:30:10.652Z,11.54
2024-01-03T08:32:58.218Z,11.18
2024-01-03T08:35:37.937Z,10.93
2024-01-03T08:38:17.316Z,11.28
2024-01-03T08:40:56.598Z,12.15
2024-01-03T08:43:35.982Z,11.49
2024-01-03T08:46:15.532Z,11.28
2024-01-03T08:49:00.151Z,11.10
2024-01-03T08:51:39.722Z,11.41
2024-01-03T08:54:19.117Z,10.98
2024-01-03T08:56:58.436Z,10.83
2024-01-03T08:59:37.852Z,10.75
2024-01-03T09:02:17.578Z,10.71
2024-01-03T09:05:02.021Z,10.67
2024-01-03T09:07:41.308Z,10.60
2024-01-03T09:10:20.700Z,10.53
2024-01-03T09:13:00.058Z,10.50
2024-01-03T09:15:39.376Z,10.49
2024-01-03T09:18:18.802Z,10.86
2024-01-03T09:21:03.457Z,10.65
2024-01-03T09:23:42.944Z,10.60
2024-01-03T09:26:22.345Z,10.51
2024-01-03T09:29:01.841Z,10.39
2024-01-03T09:31:41.168Z,10.34
2024-01-03T09:34:20.820Z,10.31
2024-01-03T09:37:07.602Z,10.28
2024-01-03T09:39:47.925Z,10.23
2024-01-03T09:42:27.534Z,10.21
2024-01-03T09:45:08.293Z,10.20
2024-01-03T09:47:48.235Z,10.35
2024-01-03T09:50:28.452Z,10.11
2024-01-03T09:53:14.917Z,9.94
2024-01-03T09:55:54.351Z,9.84
2024-01-03T09:58:33.668Z,9.72
2024-01-03T10:01:13.566Z,9.66
2024-01-03T10:03:53.012Z,9.69
2024-01-03T10:06:33.384Z,12.34
2024-01-03T10:09:18.602Z,13.33
2024-01-03T10:11:58.674Z,12.89
2024-01-03T10:14:38.043Z,11.28
2024-01-03T10:17:18.627Z,10.40
2024-01-03T10:19:57.985Z,10.37
2024-01-03T10:22:37.519Z,11.32
2024-01-03T10:25:27.146Z,11.50
2024-01-03T10:28:10.544Z,10.92
2024-01-03T10:30:51.507Z,10.83
2024-01-03T10:33:31.720Z,11.04
2024-01-03T10:36:18.298Z,11.04
2024-01-03T10:38:59.108Z,11.08
2024-01-03T10:41:46.947Z,10.94
2024-01-03T10:44:27.742Z,11.40
2024-01-03T10:47:07.181Z,11.41
2024-01-03T10:49:46.610Z,11.34
2024-01-03T10:52:33.547Z,11.26
2024-01-03T10:55:16.696Z,11.35
2024-01-03T10:58:05.728Z,11.43
2024-01-03T11:00:59.835Z,12.05
2024-01-03T11:03:48.295Z,14.00
2024-01-03T11:06:35.030Z,13.75
2024-01-03T11:09:19.232Z,13.24
2024-01-03T11:12:15.549Z,13.72
2024-01-03T11:15:00.077Z,11.67
2024-01-03T11:17:42.759Z,10.99
2024-01-03T11:20:22.405Z,11.21
2024-01-03T11:23:07.348Z,11.78
2024-01-03T11:25:50.769Z,11.88
2024-01-03T11:28:39.489Z,11.66
2024-01-03T11:32:00.419Z,11.15
2024-01-03T11:34:46.555Z,11.02
2024-01-03T11:37:48.797Z,10.92
2024-01-03T11:40:28.547Z,11.25
2024-01-03T11:43:08.541Z,14.95
2024-01-03T11:45:48.250Z,16.29
2024-01-03T11:48:34.034Z,15.81
2024-01-03T11:51:28.762Z,14.97
2024-01-03T11:54:11.065Z,11.21
2024-01-03T11:56:50.403Z,10.32
2024-01-03T11:59:29.765Z,10.55
2024-01-03T12:02:09.543Z,10.91
2024-01-03T12:04:53.896Z,10.98
2024-01-03T12:07:34.293Z,10.97
2024-01-03T12:10:16.752Z,11.05
2024-01-03T12:12:58.385Z,10.97
2024-01-03T12:15:48.742Z,11.00
2024-01-03T12:18:31.733Z,11.04
2024-01-03T12:21:23.350Z,11.05
2024-01-03T12:24:03.411Z,11.43
2024-01-03T12:26:42.943Z,12.46
2024-01-03T12:29:22.413Z,11.90
2024-01-03T12:32:01.943Z,11.70
2024-01-03T12:34:41.303Z,11.17
2024-01-03T12:37:25.839Z,11.59
2024-01-03T12:40:05.394Z,11.26
2024-01-03T12:42:44.756Z,13.58
2024-01-03T12:45:24.521Z,13.42
2024-01-03T12:48:03.960Z,12.61
2024-01-03T12:50:44.476Z,12.60
2024-01-03T12:53:28.945Z,12.73
2024-01-03T12:56:08.225Z,12.88
2024-01-03T12:58:47.488Z,11.86
2024-01-03T13:01:26.956Z,11.60
2024-01-03T13:04:06.513Z,11.40
2024-01-03T13:06:47.382Z,11.58
2024-01-03T13:09:31.834Z,11.35
2024-01-03T13:12:12.160Z,11.07
2024-01-03T13:14:51.520Z,11.35
2024-01-03T13:17:31.060Z,11.29
2024-01-03T13:20:11.108Z,10.95
2024-01-03T13:22:50.598Z,10.85
2024-01-03T13:25:34.973Z,10.83
2024-01-03T13:28:14.427Z,11.13
2024-01-03T13:30:53.872Z,11.38
2024-01-03T13:33:33.603Z,10.93
2024-01-03T13:36:14.483Z,10.44
2024-01-03T13:38:53.916Z,10.18
2024-01-03T13:41:38.336Z,9.94
2024-01-03T13:44:17.722Z,9.77
2024-01-03T13:46:57.054Z,9.77
2024-01-03T13:49:36.674Z,9.62
2024-01-03T13:52:16.651Z,9.41
2024-01-03T13:54:56.062Z,9.05
2024-01-03T13:57:40.417Z,8.96
2024-01-03T14:00:21.784Z,8.88
2024-01-03T14:03:01.613Z,8.88
2024-01-03T14:05:41.220Z,8.93
2024-01-03T14:08:20.666Z,8.99
2024-01-03T14:10:59.944Z,9.07
2024-01-03T14:13:44.401Z,9.02
2024-01-03T14:16:23.961Z,9.24
2024-01-03T14:19:03.551Z,9.06
2024-01-03T14:21:52.282Z,8.97
2024-01-03T14:24:31.825Z,9.01
2024-01-03T14:27:11.551Z,8.98
2024-01-03T14:29:56.179Z,8.92
2024-01-03T14:32:35.635Z,8.90
2024-01-03T14:35:17.970Z,8.88
2024-01-03T14:37:57.934Z,8.90
2024-01-03T14:40:38.065Z,8.92
2024-01-03T14:43:33.716Z,8.94
2024-01-03T14:46:19.466Z,8.97
2024-01-03T14:49:00.004Z,8.96
2024-01-03T14:51:39.597Z,8.99
2024-01-03T14:54:20.171Z,8.97
2024-01-03T14:56:59.684Z,8.97
2024-01-03T14:59:40.909Z,8.96
2024-01-03T15:02:25.982Z,9.00
2024-01-03T15:05:06.081Z,9.06
2024-01-03T15:07:45.778Z,9.13
2024-01-03T15:10:26.349Z,9.15
2024-01-03T15:13:05.667Z,9.13
2024-01-03T15:15:48.750Z,9.15
2024-01-03T15:18:33.334Z,9.20
2024-01-03T15:21:13.299Z,9.25
2024-01-03T15:23:53.037Z,9.25
2024-01-03T15:26:32.392Z,9.28
2024-01-03T15:29:11.749Z,9.31
2024-01-03T15:31:51.270Z,9.38
2024-01-03T15:34:41.338Z,9.41
2024-01-03T15:37:21.708Z,9.37
2024-01-03T15:40:01.589Z,9.34
2024-01-03T15:42:40.886Z,9.36
2024-01-03T15:45:20.282Z,9.42
2024-01-03T15:47:59.741Z,9.40
2024-01-03T15:50:44.344Z,9.40
2024-01-03T15:53:23.700Z,9.36
2024-01-03T15:56:03.166Z,9.33
2024-01-03T15:58:42.903Z,9.27
2024-01-03T16:01:22.340Z,9.24
2024-01-03T16:04:01.748Z,9.22
2024-01-03T16:06:46.598Z,9.24
2024-01-03T16:09:25.948Z,9.21
2024-01-03T16:12:05.355Z,9.19
2024-01-03T16:14:46.200Z,9.15
2024-01-03T16:17:25.805Z,9.16
2024-01-03T16:20:05.298Z,9.16
2024-01-03T16:22:49.692Z,9.18
2024-01-03T16:25:29.033Z,9.22
2024-01-03T16:28:10.234Z,9.26
2024-01-03T16:30:49.620Z,9.45
2024-01-03T16:33:29.183Z,9.43
2024-01-03T16:36:08.749Z,9.40
2024-01-03T16:38:55.186Z,9.42
2024-01-03T16:41:34.560Z,9.65
2024-01-03T16:44:13.887Z,9.54
2024-01-03T16:46:54.221Z,9.16
2024-01-03T16:49:34.235Z,8.74
2024-01-03T16:52:13.793Z,8.59
2024-01-03T16:54:59.774Z,8.55
2024-01-03T16:57:42.062Z,8.54
2024-01-03T17:00:22.898Z,8.55
2024-01-03T17:03:04.120Z,8.57
2024-01-03T17:05:43.672Z,8.62
2024-01-03T17:08:22.935Z,8.68
2024-01-03T17:11:10.596Z,8.75
2024-01-03T17:13:49.910Z,8.83
2024-01-03T17:16:29.429Z,8.87
2024-01-03T17:19:08.950Z,8.92
2024-01-03T17:21:48.490Z,9.00
2024-01-03T17:24:29.888Z,9.04
2024-01-03T17:27:14.285Z,9.08
2024-01-03T17:29:53.660Z,9.12
2024-01-03T17:32:33.122Z,9.12
2024-01-03T17:35:13.911Z,9.12
2024-01-03T17:37:58.539Z,9.12
2024-01-03T17:40:37.972Z,9.12
2024-01-03T17:43:22.326Z,9.12
2024-01-03T17:46:01.650Z,9.14
2024-01-03T17:48:41.973Z,9.17
2024-01-03T17:51:22.438Z,9.29
2024-01-03T17:54:02.114Z,9.36
2024-01-03T17:56:41.494Z,9.35
2024-01-03T17:59:25.928Z,9.32
2024-01-03T18:02:05.472Z,9.25
2024-01-03T18:04:44.755Z,9.21
2024-01-03T18:07:24.059Z,9.19
2024-01-03T18:10:05.298Z,9.15
2024-01-03T18:12:44.645Z,9.14
2024-01-03T18:15:29.041Z,9.17
2024-01-03T18:18:09.256Z,9.14
2024-01-03T18:20:49.390Z,9.24
2024-01-03T18:23:28.710Z,9.13
2024-01-03T18:26:08.016Z,9.12
2024-01-03T18:28:47.355Z,9.20
2024-01-03T18:31:32.288Z,9.23
2024-01-03T18:34:12.212Z,9.11
2024-01-03T18:36:52.558Z,8.96
2024-01-03T18:39:31.842Z,8.92
2024-01-03T18:42:11.873Z,8.77
2024-01-03T18:44:51.394Z,8.80
2024-01-03T18:47:35.972Z,8.94
2024-01-03T18:50:15.951Z,8.87
2024-01-03T18:52:55.617Z,8.87
2024-01-03T18:55:34.894Z,8.78
2024-01-03T18:58:14.888Z,8.80
2024-01-03T19:00:57.730Z,8.92
2024-01-03T19:03:42.881Z,9.14
2024-01-03T19:06:22.179Z,9.11
2024-01-03T19:09:01.549Z,9.10
2024-01-03T19:11:40.840Z,9.10
2024-01-03T19:14:20.261Z,9.17
2024-01-03T19:16:59.828Z,8.97
2024-01-03T19:19:44.428Z,8.88
2024-01-03T19:22:23.801Z,9.00
2024-01-03T19:25:03.080Z,8.94
2024-01-03T19:27:42.366Z,8.90
2024-01-03T19:30:22.701Z,8.74
2024-01-03T19:33:02.158Z,8.41
2024-01-03T19:35:46.712Z,8.29
2024-01-03T19:38:27.443Z,8.36
2024-01-03T19:41:06.783Z,8.34
2024-01-03T19:43:46.077Z,8.46
2024-01-03T19:46:26.243Z,8.31
2024-01-03T19:49:05.607Z,8.28
2024-01-03T19:51:50.037Z,8.14
2024-01-03T19:54:29.628Z,8.14
2024-01-03T19:57:10.149Z,8.18
2024-01-03T19:59:49.641Z,8.20
2024-01-03T20:02:29.326Z,8.14
2024-01-03T20:05:09.253Z,8.22
2024-01-03T20:07:53.664Z,8.15
2024-01-03T20:10:32.952Z,8.71
2024-01-03T20:13:12.704Z,8.52
2024-01-03T20:15:52.408Z,8.46
2024-01-03T20:18:31.873Z,8.40
2024-01-03T20:21:11.798Z,8.63
2024-01-03T20:23:56.239Z,8.45
2024-01-03T20:26:35.644Z,8.42
2024-01-03T20:29:15.345Z,8.66
2024-01-03T20:31:55.131Z,9.72
2024-01-03T20:34:34.491Z,9.03
2024-01-03T20:37:13.988Z,8.92
2024-01-03T20:39:58.368Z,8.96
2024-01-03T20:42:37.733Z,8.83
2024-01-03T20:45:17.662Z,9.31
2024-01-03T20:47:57.087Z,9.36
2024-01-03T20:50:38.170Z,9.16
2024-01-03T20:53:19.604Z,8.98
2024-01-03T20:56:03.955Z,8.90
2024-01-03T20:58:46.112Z,8.80
2024-01-03T21:01:25.561Z,8.72
2024-01-03T21:04:05.756Z,8.68
2024-01-03T21:06:45.478Z,8.67
2024-01-03T21:09:25.276Z,8.64
2024-01-03T21:12:09.641Z,8.66
2024-01-03T21:14:48.994Z,8.69
2024-01-03T21:17:29.509Z,8.73
2024-01-03T21:20:11.973Z,8.71
2024-01-03T21:22:51.279Z,8.73
2024-01-03T21:25:30.728Z,8.66
2024-01-03T21:28:16.596Z,8.63
2024-01-03T21:30:55.894Z,8.51
2024-01-03T21:33:35.430Z,8.52
2024-01-03T21:36:16.539Z,8.53
2024-01-03T21:38:55.890Z,8.50
2024-01-03T21:41:35.185Z,8.47
2024-01-03T21:44:19.556Z,8.84
2024-01-03T21:46:58.846Z,8.57
2024-01-03T21:49:38.265Z,8.58
2024-01-03T21:52:17.519Z,8.46
2024-01-03T21:54:56.815Z,8.20
2024-01-03T21:57:38.475Z,7.99
2024-01-03T22:00:27.243Z,7.85
2024-01-03T22:03:06.645Z,7.84
2024-01-03T22:05:46.107Z,7.80
2024-01-03T22:08:26.971Z,7.79
2024-01-03T22:11:06.879Z,7.75
2024-01-03T22:13:46.172Z,8.03
2024-01-03T22:16:30.529Z,7.77
2024-01-03T22:19:11.654Z,7.83
2024-01-03T22:21:51.036Z,7.77
2024-01-03T22:24:30.320Z,7.73
2024-01-03T22:27:09.745Z,7.74
2024-01-03T22:29:49.760Z,7.77
2024-01-03T22:32:34.423Z,7.84
2024-01-03T22:35:14.164Z,7.81
2024-01-03T22:37:53.486Z,7.78
2024-01-03T22:40:32.758Z,7.80
2024-01-03T22:43:12.342Z,7.82
2024-01-03T22:45:51.698Z,7.84
2024-01-03T22:48:36.180Z,7.87
2024-01-03T22:51:15.757Z,7.89
2024-01-03T22:53:55.124Z,7.91
2024-01-03T22:56:34.486Z,8.45
2024-01-03T22:59:13.923Z,8.43
2024-01-03T23:01:53.262Z,8.42
2024-01-03T23:04:37.838Z,8.21
2024-01-03T23:07:17.670Z,8.30
2024-01-03T23:09:57.094Z,8.48
2024-01-03T23:12:36.527Z,8.26
2024-01-03T23:15:16.664Z,8.12
2024-01-03T23:17:56.473Z,8.09
2024-01-03T23:20:41.095Z,8.15
2024-01-03T23:23:22.905Z,8.32
2024-01-03T23:26:04.002Z,8.31
2024-01-03T23:28:43.518Z,7.80
2024-01-03T23:31:23.382Z,7.71
2024-01-03T23:34:02.833Z,7.78
2024-01-03T23:36:47.285Z,7.79
2024-01-03T23:39:26.593Z,8.00
2024-01-03T23:42:05.907Z,7.92
2024-01-03T23:44:45.870Z,8.40
2024-01-03T23:47:25.230Z,8.41
2024-01-03T23:50:04.830Z,7.92
2024-01-03T23:52:49.223Z,7.84
2024-01-03T23:55:29.127Z,7.71
2024-01-03T23:58:10.938Z,7.61
